Time;durP1;ratioP1;P1;durP2;ratioP2;P2;SDS_P1;SDS_P2;PMS_P1;PMS_P2;Temp;Humidity;BMP_temperature;BMP_pressure;BME280_temperature;BME280_humidity;BME280_pressure;Samples;Min_cycle;Max_cycle;Signal;HPM_P1;HPM_P2
2022/10/28 00:01:13;;;;;;;11.23;10.13;;;;;;;;;;4981366;28;20094;-72
2022/10/28 00:03:42;;;;;;;15.70;10.30;;;;;;;;;;4984924;28;20042;-72
2022/10/28 00:06:13;;;;;;;10.57;9.47;;;;;;;;;;4980582;28;20033;-72
2022/10/28 00:08:40;;;;;;;14.40;11.18;;;;;;;;;;4986222;28;20174;-72
2022/10/28 00:11:15;;;;;;;13.25;11.02;;;;;;;;;;4983830;28;20065;-72
2022/10/28 00:13:42;;;;;;;11.68;10.02;;;;;;;;;;4985560;28;20034;-72
2022/10/28 00:16:15;;;;;;;13.75;10.55;;;;;;;;;;4982742;28;20057;-72
2022/10/28 00:18:41;;;;;;;13.55;9.63;;;;;;;;;;4982255;28;20434;-74
2022/10/28 00:21:12;;;;;;;13.15;9.30;;;;;;;;;;4981971;28;20072;-73
2022/10/28 00:23:39;;;;;;;13.13;9.57;;;;;;;;;;4982385;28;20030;-74
2022/10/28 00:26:13;;;;;;;11.30;9.18;;;;;;;;;;4982801;28;20117;-72
2022/10/28 00:28:50;;;;;;;14.07;9.43;;;;;;;;;;4983251;28;20430;-73
2022/10/28 00:31:17;;;;;;;12.43;9.43;;;;;;;;;;4983180;28;20042;-73
2022/10/28 00:33:43;;;;;;;15.32;9.18;;;;;;;;;;4982737;28;20532;-73
2022/10/28 00:36:20;;;;;;;11.20;9.55;;;;;;;;;;4984624;28;20038;-73
2022/10/28 00:38:47;;;;;;;12.00;8.85;;;;;;;;;;4982809;28;20113;-74
2022/10/28 00:41:16;;;;;;;9.38;8.50;;;;;;;;;;4998985;28;20038;-73
2022/10/28 00:43:48;;;;;;;10.55;9.20;;;;;;;;;;4983175;28;20027;-74
2022/10/28 00:46:26;;;;;;;11.07;9.52;;;;;;;;;;4980598;28;20035;-73
2022/10/28 00:48:58;;;;;;;10.40;9.48;;;;;;;;;;4982201;28;20436;-72
2022/10/28 00:51:25;;;;;;;10.82;9.13;;;;;;;;;;4981606;28;20628;-73
2022/10/28 00:53:53;;;;;;;10.32;9.50;;;;;;;;;;4982975;28;20034;-73
2022/10/28 00:56:20;;;;;;;12.13;9.45;;;;;;;;;;4983881;28;20117;-73
2022/10/28 00:58:53;;;;;;;10.27;9.27;;;;;;;;;;4991080;28;20105;-74
2022/10/28 01:01:18;;;;;;;13.23;9.68;;;;;;;;;;4956159;28;20037;-73
2022/10/28 01:03:44;;;;;;;12.93;10.23;;;;;;;;;;4978775;28;20034;-74
2022/10/28 01:06:09;;;;;;;10.25;9.10;;;;;;;;;;4982676;28;20027;-73
2022/10/28 01:08:35;;;;;;;9.85;9.05;;;;;;;;;;4982191;28;20030;-73
2022/10/28 01:11:13;;;;;;;10.77;9.57;;;;;;;;;;4981467;28;20073;-73
2022/10/28 01:14:09;;;;;;;13.45;9.48;;;;;;;;;;4980888;28;20533;-74
2022/10/28 01:16:55;;;;;;;10.85;9.07;;;;;;;;;;4982499;28;20026;-73
2022/10/28 01:19:45;;;;;;;18.23;10.10;;;;;;;;;;4985402;28;20042;-74
2022/10/28 01:22:25;;;;;;;10.80;9.77;;;;;;;;;;4984814;28;20477;-74
2022/10/28 01:25:02;;;;;;;10.60;9.40;;;;;;;;;;4985478;28;20034;-74
2022/10/28 01:27:49;;;;;;;12.20;9.18;;;;;;;;;;4987420;28;20038;-73
2022/10/28 01:30:25;;;;;;;10.07;9.18;;;;;;;;;;4987043;28;20112;-74
2022/10/28 01:33:08;;;;;;;11.23;9.10;;;;;;;;;;4986188;28;20465;-74
2022/10/28 01:35:51;;;;;;;10.40;9.40;;;;;;;;;;4984117;28;20027;-74
2022/10/28 01:38:34;;;;;;;14.60;9.50;;;;;;;;;;4986925;28;20053;-74
2022/10/28 01:41:18;;;;;;;10.35;9.35;;;;;;;;;;4985993;28;20042;-74
2022/10/28 01:44:06;;;;;;;11.27;9.57;;;;;;;;;;4984326;28;20129;-74
2022/10/28 01:46:50;;;;;;;9.70;8.75;;;;;;;;;;4983111;28;20133;-73
2022/10/28 01:49:27;;;;;;;10.30;8.68;;;;;;;;;;4984800;28;20137;-74
2022/10/28 01:52:02;;;;;;;13.98;9.73;;;;;;;;;;4984529;28;20117;-74
2022/10/28 01:54:32;;;;;;;10.15;9.18;;;;;;;;;;4982528;28;20035;-73
2022/10/28 01:57:01;;;;;;;11.75;9.05;;;;;;;;;;4981714;28;20035;-74
2022/10/28 01:59:28;;;;;;;10.15;9.10;;;;;;;;;;4984790;28;20430;-74
2022/10/28 02:01:55;;;;;;;10.05;8.80;;;;;;;;;;4983377;28;20026;-74
2022/10/28 02:04:20;;;;;;;14.63;9.55;;;;;;;;;;4975255;28;20026;-74
2022/10/28 02:06:53;;;;;;;11.75;9.25;;;;;;;;;;4984498;28;20398;-74
2022/10/28 02:09:24;;;;;;;14.25;10.20;;;;;;;;;;4985326;28;20237;-74
2022/10/28 02:12:18;;;;;;;10.73;9.55;;;;;;;;;;4983611;28;20053;-73
2022/10/28 02:14:53;;;;;;;11.57;9.55;;;;;;;;;;4988144;28;20120;-74
2022/10/28 02:17:30;;;;;;;11.50;9.80;;;;;;;;;;4985774;28;20753;-74
2022/10/28 02:20:26;;;;;;;13.02;9.80;;;;;;;;;;4983041;28;20073;-74
2022/10/28 02:22:57;;;;;;;13.80;9.75;;;;;;;;;;4985176;28;20045;-74
2022/10/28 02:25:48;;;;;;;16.73;9.60;;;;;;;;;;4984307;28;20037;-74
2022/10/28 02:28:41;;;;;;;11.38;9.48;;;;;;;;;;4971547;28;20110;-73
2022/10/28 02:31:15;;;;;;;10.52;9.38;;;;;;;;;;4981894;28;20077;-73
2022/10/28 02:33:42;;;;;;;13.55;8.80;;;;;;;;;;4986086;28;20038;-74
2022/10/28 02:36:13;;;;;;;12.77;9.27;;;;;;;;;;4979541;28;20026;-74
2022/10/28 02:38:46;;;;;;;11.55;9.43;;;;;;;;;;4981611;28;20046;-73
2022/10/28 02:41:23;;;;;;;10.18;9.18;;;;;;;;;;4984018;28;20129;-73
2022/10/28 02:43:53;;;;;;;12.73;9.77;;;;;;;;;;4984247;28;20093;-74
2022/10/28 02:46:20;;;;;;;11.75;9.77;;;;;;;;;;4983061;28;20506;-73
2022/10/28 02:48:51;;;;;;;14.40;9.05;;;;;;;;;;4984931;28;20497;-74
2022/10/28 02:51:23;;;;;;;13.48;9.00;;;;;;;;;;4984669;28;20038;-73
2022/10/28 02:53:53;;;;;;;11.45;9.10;;;;;;;;;;4985488;28;20042;-73
2022/10/28 02:56:20;;;;;;;11.63;9.75;;;;;;;;;;4982525;28;20041;-73
2022/10/28 02:58:47;;;;;;;13.35;9.40;;;;;;;;;;4985508;28;20034;-74
2022/10/28 03:01:12;;;;;;;10.52;9.35;;;;;;;;;;4979990;28;20034;-74
2022/10/28 03:03:39;;;;;;;13.00;9.23;;;;;;;;;;4980542;28;20039;-74
2022/10/28 03:06:04;;;;;;;12.27;9.52;;;;;;;;;;4983176;28;20092;-74
2022/10/28 03:08:30;;;;;;;10.40;9.27;;;;;;;;;;4983623;28;20482;-74
2022/10/28 03:10:56;;;;;;;14.00;9.38;;;;;;;;;;4984316;28;20026;-74
2022/10/28 03:13:21;;;;;;;11.05;9.23;;;;;;;;;;4979644;28;20066;-74
2022/10/28 03:15:47;;;;;;;10.85;9.73;;;;;;;;;;4982522;28;20043;-74
2022/10/28 03:18:12;;;;;;;10.18;9.35;;;;;;;;;;4982721;28;20034;-74
2022/10/28 03:20:38;;;;;;;11.85;10.10;;;;;;;;;;4981963;28;20038;-73
2022/10/28 03:23:03;;;;;;;12.52;9.45;;;;;;;;;;4982893;28;20058;-73
2022/10/28 03:25:29;;;;;;;10.38;9.25;;;;;;;;;;4982719;28;20391;-73
2022/10/28 03:27:55;;;;;;;13.52;9.13;;;;;;;;;;4983124;28;20030;-73
2022/10/28 03:30:20;;;;;;;10.43;9.32;;;;;;;;;;4982331;28;20038;-73
2022/10/28 03:32:46;;;;;;;9.80;8.90;;;;;;;;;;4982826;28;20038;-73
2022/10/28 03:35:11;;;;;;;12.75;9.80;;;;;;;;;;4979991;28;20034;-73
2022/10/28 03:37:41;;;;;;;14.45;8.75;;;;;;;;;;4982159;28;20030;-73
2022/10/28 03:40:07;;;;;;;11.50;8.93;;;;;;;;;;4983589;28;20053;-73
2022/10/28 03:42:33;;;;;;;10.45;9.48;;;;;;;;;;4979991;28;20101;-73
2022/10/28 03:44:58;;;;;;;9.70;8.73;;;;;;;;;;4984613;28;20042;-73
2022/10/28 03:47:24;;;;;;;15.45;9.07;;;;;;;;;;4982708;28;20053;-73
2022/10/28 03:49:50;;;;;;;10.57;8.77;;;;;;;;;;4981399;28;20034;-73
2022/10/28 03:52:15;;;;;;;17.20;10.48;;;;;;;;;;4983367;28;20123;-73
2022/10/28 03:54:41;;;;;;;10.18;9.05;;;;;;;;;;4983963;28;20045;-73
2022/10/28 03:57:06;;;;;;;10.52;9.60;;;;;;;;;;4982328;28;20044;-73
2022/10/28 03:59:32;;;;;;;10.27;9.27;;;;;;;;;;4980504;28;20646;-73
2022/10/28 04:01:58;;;;;;;12.70;9.30;;;;;;;;;;4981792;28;20645;-73
2022/10/28 04:04:23;;;;;;;13.02;10.23;;;;;;;;;;4980841;28;20030;-73
2022/10/28 04:06:49;;;;;;;11.73;9.35;;;;;;;;;;4979743;28;20406;-73
2022/10/28 04:09:14;;;;;;;12.75;10.77;;;;;;;;;;4984828;28;20113;-73
2022/10/28 04:11:40;;;;;;;12.30;10.13;;;;;;;;;;4981001;28;20217;-73
2022/10/28 04:14:05;;;;;;;12.27;9.77;;;;;;;;;;4978648;28;20682;-73
2022/10/28 04:16:31;;;;;;;11.15;9.50;;;;;;;;;;4979143;28;20034;-73
2022/10/28 04:18:56;;;;;;;13.60;9.88;;;;;;;;;;4983753;28;20042;-73
2022/10/28 04:21:22;;;;;;;14.73;10.55;;;;;;;;;;4983787;28;20030;-73
2022/10/28 04:23:47;;;;;;;11.27;10.18;;;;;;;;;;4981473;28;20051;-73
2022/10/28 04:26:14;;;;;;;11.43;10.30;;;;;;;;;;4983999;28;20087;-73
2022/10/28 04:28:39;;;;;;;11.82;10.45;;;;;;;;;;4983666;28;20061;-73
2022/10/28 04:31:05;;;;;;;13.05;9.35;;;;;;;;;;4980309;28;20068;-73
2022/10/28 04:33:31;;;;;;;11.23;10.20;;;;;;;;;;4987327;28;20038;-73
2022/10/28 04:35:56;;;;;;;9.88;9.10;;;;;;;;;;4985340;28;20060;-73
2022/10/28 04:38:22;;;;;;;11.35;9.95;;;;;;;;;;4983845;28;20038;-73
2022/10/28 04:40:48;;;;;;;9.57;8.88;;;;;;;;;;4979529;28;20055;-73
2022/10/28 04:43:14;;;;;;;12.93;10.20;;;;;;;;;;4984256;28;20034;-73
2022/10/28 04:45:40;;;;;;;14.45;10.20;;;;;;;;;;4983851;28;20133;-74
2022/10/28 04:48:07;;;;;;;13.57;10.60;;;;;;;;;;4982150;28;20122;-74
2022/10/28 04:50:33;;;;;;;18.65;10.30;;;;;;;;;;4978969;28;20040;-73
2022/10/28 04:52:58;;;;;;;12.63;10.23;;;;;;;;;;4981779;28;20089;-74
2022/10/28 04:55:24;;;;;;;16.65;10.38;;;;;;;;;;4986757;28;20133;-73
2022/10/28 04:57:55;;;;;;;17.05;10.00;;;;;;;;;;4982776;28;20653;-74
2022/10/28 05:00:21;;;;;;;11.18;9.80;;;;;;;;;;4980557;28;20042;-74
2022/10/28 05:02:46;;;;;;;15.48;10.93;;;;;;;;;;4987342;28;20062;-73
2022/10/28 05:05:13;;;;;;;16.92;10.35;;;;;;;;;;4986867;28;20457;-73
2022/10/28 05:07:39;;;;;;;11.23;9.95;;;;;;;;;;4987745;28;20065;-73
2022/10/28 05:10:05;;;;;;;12.00;10.38;;;;;;;;;;4983799;28;20409;-74
2022/10/28 05:12:30;;;;;;;11.40;10.30;;;;;;;;;;4987426;28;20038;-73
2022/10/28 05:14:56;;;;;;;11.98;10.05;;;;;;;;;;4982857;28;20042;-73
2022/10/28 05:17:21;;;;;;;10.75;9.68;;;;;;;;;;4985787;28;20037;-73
2022/10/28 05:19:47;;;;;;;16.80;10.20;;;;;;;;;;4986857;28;20470;-73
2022/10/28 05:22:12;;;;;;;11.20;10.00;;;;;;;;;;4984229;28;20121;-74
2022/10/28 05:24:38;;;;;;;14.63;9.90;;;;;;;;;;4986192;28;20031;-74
2022/10/28 05:27:03;;;;;;;12.10;10.85;;;;;;;;;;4987601;28;20030;-75
2022/10/28 05:29:29;;;;;;;12.02;10.10;;;;;;;;;;4986315;28;20453;-74
2022/10/28 05:31:54;;;;;;;10.88;9.63;;;;;;;;;;4982370;28;20322;-74
2022/10/28 05:34:20;;;;;;;11.65;10.38;;;;;;;;;;4987017;28;20073;-74
2022/10/28 05:36:46;;;;;;;13.05;11.20;;;;;;;;;;4987417;28;20129;-74
2022/10/28 05:39:12;;;;;;;11.27;10.32;;;;;;;;;;4987361;28;20026;-74
2022/10/28 05:41:38;;;;;;;11.32;10.23;;;;;;;;;;4983978;28;20042;-74
2022/10/28 05:44:04;;;;;;;13.82;10.57;;;;;;;;;;4986564;28;20084;-74
2022/10/28 05:46:30;;;;;;;12.48;10.63;;;;;;;;;;4986302;28;20058;-74
2022/10/28 05:48:56;;;;;;;11.40;10.40;;;;;;;;;;4984556;28;20486;-76
2022/10/28 05:51:21;;;;;;;13.63;10.93;;;;;;;;;;4985261;28;20038;-76
2022/10/28 05:53:49;;;;;;;13.18;10.00;;;;;;;;;;4987764;28;20093;-75
2022/10/28 05:56:15;;;;;;;14.10;9.68;;;;;;;;;;4987009;28;20037;-75
2022/10/28 05:58:41;;;;;;;11.48;9.60;;;;;;;;;;4985715;28;20053;-75
2022/10/28 06:01:07;;;;;;;10.82;9.75;;;;;;;;;;4984824;28;20510;-76
2022/10/28 06:03:32;;;;;;;14.60;9.75;;;;;;;;;;4988898;28;20034;-76
2022/10/28 06:05:58;;;;;;;17.55;10.18;;;;;;;;;;4988030;28;20033;-75
2022/10/28 06:08:24;;;;;;;11.30;9.65;;;;;;;;;;4988704;28;20375;-76
2022/10/28 06:10:51;;;;;;;11.50;10.50;;;;;;;;;;4989794;28;20513;-76
2022/10/28 06:13:17;;;;;;;11.30;10.20;;;;;;;;;;4990545;28;20062;-76
2022/10/28 06:15:42;;;;;;;11.23;10.13;;;;;;;;;;4986264;28;20139;-76
2022/10/28 06:18:08;;;;;;;12.60;9.98;;;;;;;;;;4985684;28;20034;-75
2022/10/28 06:20:33;;;;;;;10.55;9.18;;;;;;;;;;4987928;28;20041;-75
2022/10/28 06:22:59;;;;;;;10.35;9.38;;;;;;;;;;4990830;28;20034;-75
2022/10/28 06:25:26;;;;;;;11.00;9.90;;;;;;;;;;4989960;28;20429;-75
2022/10/28 06:27:59;;;;;;;11.27;9.85;;;;;;;;;;4990764;28;20443;-75
2022/10/28 06:30:26;;;;;;;11.63;9.63;;;;;;;;;;4987510;28;20053;-76
2022/10/28 06:32:52;;;;;;;15.70;10.13;;;;;;;;;;4990948;28;20553;-75
2022/10/28 06:35:18;;;;;;;12.77;10.18;;;;;;;;;;4991014;28;20061;-75
2022/10/28 06:37:43;;;;;;;13.43;9.35;;;;;;;;;;4988978;28;20046;-75
2022/10/28 06:40:09;;;;;;;13.00;9.82;;;;;;;;;;4990338;28;20069;-75
2022/10/28 06:42:35;;;;;;;16.02;9.75;;;;;;;;;;4990725;28;20113;-75
2022/10/28 06:45:00;;;;;;;14.55;9.02;;;;;;;;;;4990692;28;20045;-76
2022/10/28 06:47:26;;;;;;;9.93;8.80;;;;;;;;;;4983298;28;20042;-75
2022/10/28 06:49:51;;;;;;;23.13;9.43;;;;;;;;;;4989418;28;20038;-75
2022/10/28 06:52:17;;;;;;;14.48;8.73;;;;;;;;;;4989414;28;20478;-76
2022/10/28 06:54:43;;;;;;;10.25;8.98;;;;;;;;;;4987906;28;20395;-75
2022/10/28 06:57:11;;;;;;;16.98;9.73;;;;;;;;;;4989464;28;20110;-75
2022/10/28 06:59:37;;;;;;;15.80;9.02;;;;;;;;;;4990161;28;20030;-75
2022/10/28 07:02:03;;;;;;;13.18;9.23;;;;;;;;;;4986129;28;20034;-75
2022/10/28 07:04:28;;;;;;;12.90;9.32;;;;;;;;;;4986870;28;20057;-76
2022/10/28 07:06:55;;;;;;;9.80;8.85;;;;;;;;;;4990537;28;20145;-75
2022/10/28 07:09:20;;;;;;;10.95;9.25;;;;;;;;;;4989735;28;20510;-75
2022/10/28 07:11:49;;;;;;;9.63;8.68;;;;;;;;;;4988052;28;20072;-76
2022/10/28 07:14:15;;;;;;;10.52;9.45;;;;;;;;;;4988331;28;20034;-75
2022/10/28 07:16:41;;;;;;;12.38;9.40;;;;;;;;;;4985562;28;20038;-75
2022/10/28 07:19:07;;;;;;;8.90;8.02;;;;;;;;;;4990331;28;20245;-75
2022/10/28 07:21:33;;;;;;;14.93;9.60;;;;;;;;;;4986365;28;20058;-75
2022/10/28 07:23:58;;;;;;;14.85;8.85;;;;;;;;;;4989640;28;20069;-75
2022/10/28 07:26:24;;;;;;;11.43;8.57;;;;;;;;;;4989400;28;20540;-75
2022/10/28 07:28:50;;;;;;;13.48;9.48;;;;;;;;;;4987467;28;20041;-75
2022/10/28 07:31:16;;;;;;;8.60;7.82;;;;;;;;;;4983056;28;20027;-75
2022/10/28 07:33:42;;;;;;;9.27;8.48;;;;;;;;;;4988910;28;20081;-75
2022/10/28 07:36:08;;;;;;;14.55;9.40;;;;;;;;;;4989128;28;20058;-75
2022/10/28 07:38:34;;;;;;;10.38;8.73;;;;;;;;;;4985049;28;20126;-75
2022/10/28 07:41:07;;;;;;;12.93;9.50;;;;;;;;;;4987688;28;20113;-75
2022/10/28 07:43:37;;;;;;;10.20;8.80;;;;;;;;;;4980420;28;20046;-75
2022/10/28 07:46:06;;;;;;;11.40;9.25;;;;;;;;;;4986868;28;20030;-75
2022/10/28 07:48:33;;;;;;;13.85;9.38;;;;;;;;;;4990393;28;20038;-75
2022/10/28 07:51:04;;;;;;;13.57;9.40;;;;;;;;;;4989609;28;20030;-75
2022/10/28 07:53:30;;;;;;;14.60;10.35;;;;;;;;;;4986893;28;20097;-74
2022/10/28 07:56:00;;;;;;;12.70;9.43;;;;;;;;;;4984824;28;20130;-76
2022/10/28 07:58:26;;;;;;;15.98;9.27;;;;;;;;;;4988460;28;20401;-76
2022/10/28 08:00:52;;;;;;;12.52;9.50;;;;;;;;;;4987541;28;20088;-76
2022/10/28 08:03:17;;;;;;;11.52;9.13;;;;;;;;;;4988121;28;20038;-76
2022/10/28 08:05:43;;;;;;;13.20;9.50;;;;;;;;;;4986150;28;20516;-76
2022/10/28 08:08:09;;;;;;;10.48;8.95;;;;;;;;;;4988485;28;20034;-75
2022/10/28 08:10:34;;;;;;;14.27;9.57;;;;;;;;;;4986475;28;20494;-76
2022/10/28 08:13:00;;;;;;;14.43;9.65;;;;;;;;;;4984637;28;20256;-75
2022/10/28 08:15:27;;;;;;;10.35;9.35;;;;;;;;;;4986438;28;20027;-76
2022/10/28 08:17:53;;;;;;;10.50;9.32;;;;;;;;;;4987445;28;20056;-76
2022/10/28 08:20:19;;;;;;;11.60;8.70;;;;;;;;;;4986357;28;20034;-76
2022/10/28 08:22:45;;;;;;;10.98;9.90;;;;;;;;;;4983793;28;20041;-76
2022/10/28 08:25:11;;;;;;;12.40;9.63;;;;;;;;;;4988239;28;20249;-77
2022/10/28 08:27:36;;;;;;;12.18;10.00;;;;;;;;;;4988062;28;20482;-76
2022/10/28 08:30:02;;;;;;;12.35;9.75;;;;;;;;;;4984650;28;20030;-76
2022/10/28 08:32:29;;;;;;;12.90;9.30;;;;;;;;;;4984925;28;20027;-76
2022/10/28 08:34:54;;;;;;;12.27;9.50;;;;;;;;;;4985650;28;20513;-76
2022/10/28 08:37:20;;;;;;;11.02;9.40;;;;;;;;;;4986905;28;20379;-76
2022/10/28 08:39:45;;;;;;;12.60;9.45;;;;;;;;;;4988235;28;20088;-76
2022/10/28 08:42:26;;;;;;;10.43;9.32;;;;;;;;;;4983597;28;20482;-76
2022/10/28 08:45:06;;;;;;;11.25;9.27;;;;;;;;;;4987740;28;20078;-76
2022/10/28 08:47:56;;;;;;;13.88;10.57;;;;;;;;;;4985091;28;20213;-75
2022/10/28 08:50:26;;;;;;;21.73;11.23;;;;;;;;;;4987527;28;20038;-76
2022/10/28 08:52:57;;;;;;;20.95;12.02;;;;;;;;;;4988526;28;20518;-76
2022/10/28 08:55:32;;;;;;;18.05;10.45;;;;;;;;;;4988433;28;20172;-76
2022/10/28 08:58:11;;;;;;;21.05;10.38;;;;;;;;;;4982895;28;20054;-76
2022/10/28 09:00:39;;;;;;;12.57;10.27;;;;;;;;;;4987046;28;20034;-75
2022/10/28 09:03:10;;;;;;;14.55;10.52;;;;;;;;;;4987602;28;20030;-76
2022/10/28 09:05:41;;;;;;;16.10;10.43;;;;;;;;;;4984276;28;20088;-75
2022/10/28 09:08:21;;;;;;;15.52;9.93;;;;;;;;;;4986221;28;20068;-75
2022/10/28 09:11:00;;;;;;;10.90;9.45;;;;;;;;;;4986546;28;20065;-75
2022/10/28 09:13:44;;;;;;;17.88;9.73;;;;;;;;;;4985441;28;20026;-74
2022/10/28 09:16:38;;;;;;;18.40;9.57;;;;;;;;;;4986423;28;20037;-76
2022/10/28 09:19:32;;;;;;;16.15;9.55;;;;;;;;;;4987002;28;20513;-76
2022/10/28 09:22:25;;;;;;;14.50;9.65;;;;;;;;;;4985959;28;20237;-76
2022/10/28 09:24:56;;;;;;;12.32;8.95;;;;;;;;;;4987812;28;20039;-76
2022/10/28 09:27:44;;;;;;;10.48;9.23;;;;;;;;;;4988156;28;20096;-76
2022/10/28 09:30:41;;;;;;;11.05;8.55;;;;;;;;;;4986235;28;20041;-76
2022/10/28 09:33:30;;;;;;;12.48;9.45;;;;;;;;;;4980793;28;20046;-75
2022/10/28 09:35:56;;;;;;;15.10;10.27;;;;;;;;;;4973215;28;20414;-76
2022/10/28 09:38:30;;;;;;;17.25;10.35;;;;;;;;;;4985217;28;20034;-76
2022/10/28 09:41:13;;;;;;;14.30;10.85;;;;;;;;;;4991474;28;20401;-76
2022/10/28 09:43:46;;;;;;;14.95;10.77;;;;;;;;;;4990595;28;20084;-76
2022/10/28 09:46:17;;;;;;;15.00;9.55;;;;;;;;;;4983751;28;20043;-76
2022/10/28 09:48:54;;;;;;;10.88;8.98;;;;;;;;;;4988694;28;20038;-76
2022/10/28 09:51:27;;;;;;;11.13;9.93;;;;;;;;;;4990518;28;20046;-75
2022/10/28 09:53:57;;;;;;;9.73;8.68;;;;;;;;;;4987011;28;20117;-75
2022/10/28 09:56:24;;;;;;;10.57;8.30;;;;;;;;;;4985680;28;20096;-75
2022/10/28 09:58:51;;;;;;;13.65;8.90;;;;;;;;;;4990441;28;20549;-76
2022/10/28 10:01:17;;;;;;;12.00;8.88;;;;;;;;;;4988711;28;20104;-75
2022/10/28 10:03:46;;;;;;;9.52;8.55;;;;;;;;;;4985015;28;20069;-76
2022/10/28 10:06:16;;;;;;;9.70;8.38;;;;;;;;;;4989432;28;20132;-75
2022/10/28 10:08:44;;;;;;;15.52;9.13;;;;;;;;;;4991036;28;20046;-76
2022/10/28 10:11:39;;;;;;;13.93;9.20;;;;;;;;;;4989643;28;20085;-76
2022/10/28 10:14:31;;;;;;;13.25;8.27;;;;;;;;;;4984837;28;20239;-76
2022/10/28 10:17:01;;;;;;;14.45;9.75;;;;;;;;;;4981989;28;20041;-76
2022/10/28 10:19:27;;;;;;;10.35;8.13;;;;;;;;;;4988698;28;20037;-76
2022/10/28 10:21:54;;;;;;;14.10;8.85;;;;;;;;;;4988570;28;20050;-76
2022/10/28 10:24:33;;;;;;;12.05;9.00;;;;;;;;;;4987475;28;20046;-76
2022/10/28 10:27:02;;;;;;;10.57;9.15;;;;;;;;;;4988951;28;20540;-76
2022/10/28 10:29:30;;;;;;;9.88;8.90;;;;;;;;;;4994610;28;20053;-75
2022/10/28 10:32:15;;;;;;;14.32;9.30;;;;;;;;;;5002850;23;20046;-69
2022/10/28 10:35:03;;;;;;;14.93;9.93;;;;;;;;;;4990030;28;20034;-69
2022/10/28 10:37:33;;;;;;;14.97;10.67;;;;;;;;;;4987469;28;20177;-69
2022/10/28 10:40:21;;;;;;;15.65;9.82;;;;;;;;;;4988185;28;20046;-69
2022/10/28 10:42:47;;;;;;;15.83;9.90;;;;;;;;;;4972025;28;20035;-69
2022/10/28 10:45:23;;;;;;;11.27;9.27;;;;;;;;;;4967925;28;20093;-69
2022/10/28 10:48:06;;;;;;;14.30;9.80;;;;;;;;;;4964983;28;20042;-69
2022/10/28 10:50:32;;;;;;;12.25;9.07;;;;;;;;;;4967381;28;20383;-69
2022/10/28 10:52:59;;;;;;;10.50;8.35;;;;;;;;;;4968397;28;20117;-68
2022/10/28 10:55:39;;;;;;;13.73;9.25;;;;;;;;;;4966953;28;20026;-69
2022/10/28 10:58:13;;;;;;;10.15;8.77;;;;;;;;;;4966602;28;20043;-69
2022/10/28 11:00:46;;;;;;;12.10;9.05;;;;;;;;;;4981512;28;20062;-68
2022/10/28 11:03:29;;;;;;;11.07;9.05;;;;;;;;;;4966993;28;20114;-68
2022/10/28 11:05:57;;;;;;;11.70;9.50;;;;;;;;;;4965481;28;20027;-68
2022/10/28 11:08:32;;;;;;;13.68;10.02;;;;;;;;;;4967806;28;20115;-68
2022/10/28 11:11:13;;;;;;;10.57;9.57;;;;;;;;;;4966786;28;20042;-68
2022/10/28 11:13:40;;;;;;;13.07;9.90;;;;;;;;;;4966981;28;20035;-69
2022/10/28 11:16:19;;;;;;;12.60;10.13;;;;;;;;;;4967194;28;20042;-68
2022/10/28 11:18:48;;;;;;;14.20;9.93;;;;;;;;;;4965900;28;20082;-68
2022/10/28 11:21:52;;;;;;;14.03;10.57;;;;;;;;;;4965921;28;20042;-68
2022/10/28 11:24:39;;;;;;;13.60;9.60;;;;;;;;;;4967581;28;20938;-69
2022/10/28 11:27:23;;;;;;;10.55;9.55;;;;;;;;;;4966019;28;20113;-69
2022/10/28 11:29:49;;;;;;;15.93;9.38;;;;;;;;;;4964297;28;20157;-69
2022/10/28 11:32:41;;;;;;;12.82;9.23;;;;;;;;;;4966384;28;20449;-69
2022/10/28 11:35:24;;;;;;;10.02;9.13;;;;;;;;;;4967419;28;21154;-68
2022/10/28 11:37:58;;;;;;;12.68;9.15;;;;;;;;;;4967600;28;20050;-68
2022/10/28 11:40:31;;;;;;;13.32;8.63;;;;;;;;;;4965246;28;20403;-68
2022/10/28 11:43:34;;;;;;;18.85;10.13;;;;;;;;;;4966742;28;20069;-68
2022/10/28 11:46:12;;;;;;;14.73;10.70;;;;;;;;;;4966962;28;20490;-68
2022/10/28 11:49:20;;;;;;;17.73;10.68;;;;;;;;;;4964835;28;20054;-68
2022/10/28 11:51:55;;;;;;;10.93;9.35;;;;;;;;;;4966278;28;20042;-68
2022/10/28 11:54:46;;;;;;;14.68;9.98;;;;;;;;;;4966245;28;20035;-68
2022/10/28 11:57:17;;;;;;;12.18;9.10;;;;;;;;;;4964842;28;20054;-68
2022/10/28 12:00:01;;;;;;;13.43;9.93;;;;;;;;;;4964216;28;20133;-68
2022/10/28 12:02:54;;;;;;;10.82;9.40;;;;;;;;;;4965335;28;20043;-68
2022/10/28 12:05:31;;;;;;;14.68;9.35;;;;;;;;;;4964997;28;20356;-70
2022/10/28 12:08:16;;;;;;;10.98;9.82;;;;;;;;;;4965759;28;20046;-68
2022/10/28 12:10:59;;;;;;;15.60;8.48;;;;;;;;;;4965881;28;20034;-68
2022/10/28 12:13:57;;;;;;;11.27;9.88;;;;;;;;;;4966940;28;20109;-68
2022/10/28 12:16:29;;;;;;;10.65;9.23;;;;;;;;;;4964607;28;20624;-68
2022/10/28 12:18:57;;;;;;;13.63;9.93;;;;;;;;;;4966338;28;20070;-68
2022/10/28 12:21:31;;;;;;;16.52;11.38;;;;;;;;;;4965853;28;20050;-68
2022/10/28 12:23:58;;;;;;;12.32;10.35;;;;;;;;;;4964009;28;20109;-68
2022/10/28 12:26:53;;;;;;;9.85;9.05;;;;;;;;;;4965157;28;20422;-68
2022/10/28 12:29:27;;;;;;;13.60;9.95;;;;;;;;;;4964695;28;20646;-68
2022/10/28 12:32:13;;;;;;;14.40;9.85;;;;;;;;;;4963917;28;20038;-69
2022/10/28 12:34:49;;;;;;;14.93;9.15;;;;;;;;;;4963914;28;20122;-69
2022/10/28 12:37:26;;;;;;;16.45;8.68;;;;;;;;;;4974336;28;20039;-69
2022/10/28 12:40:06;;;;;;;11.73;9.25;;;;;;;;;;4965543;28;20382;-69
2022/10/28 12:42:36;;;;;;;13.73;9.98;;;;;;;;;;4965468;28;20034;-69
2022/10/28 12:45:05;;;;;;;10.60;8.77;;;;;;;;;;4963907;28;20039;-69
2022/10/28 12:47:56;;;;;;;12.43;8.05;;;;;;;;;;4964132;28;20121;-69
2022/10/28 12:50:52;;;;;;;12.00;8.40;;;;;;;;;;4964665;28;20039;-69
2022/10/28 12:53:22;;;;;;;10.52;7.60;;;;;;;;;;4959409;28;20560;-69
2022/10/28 12:56:00;;;;;;;10.40;8.80;;;;;;;;;;4965349;28;20101;-69
2022/10/28 12:58:37;;;;;;;10.45;9.48;;;;;;;;;;4965405;28;20692;-69
2022/10/28 13:01:08;;;;;;;15.65;9.50;;;;;;;;;;4961486;28;20031;-69
2022/10/28 13:03:35;;;;;;;10.25;9.23;;;;;;;;;;4965168;28;20061;-69
2022/10/28 13:06:22;;;;;;;10.18;9.13;;;;;;;;;;4964907;28;20061;-69
2022/10/28 13:09:14;;;;;;;13.45;9.07;;;;;;;;;;4963445;28;20069;-69
2022/10/28 13:11:58;;;;;;;13.77;8.75;;;;;;;;;;4964816;28;20050;-69
2022/10/28 13:14:42;;;;;;;9.60;8.57;;;;;;;;;;4967291;28;20102;-69
2022/10/28 13:17:25;;;;;;;13.95;8.93;;;;;;;;;;4968697;28;20038;-69
2022/10/28 13:20:07;;;;;;;12.02;9.02;;;;;;;;;;4970150;28;20050;-69
2022/10/28 13:22:48;;;;;;;11.75;8.02;;;;;;;;;;4969838;28;20062;-68
2022/10/28 13:25:21;;;;;;;12.13;8.38;;;;;;;;;;4967472;28;20030;-68
2022/10/28 13:27:52;;;;;;;10.80;8.75;;;;;;;;;;4970373;28;20039;-69
2022/10/28 13:30:20;;;;;;;11.95;9.00;;;;;;;;;;4969999;28;20042;-69
2022/10/28 13:32:59;;;;;;;15.13;8.70;;;;;;;;;;4966594;28;20050;-69
2022/10/28 13:35:26;;;;;;;13.80;9.73;;;;;;;;;;4969610;28;20409;-69
2022/10/28 13:37:53;;;;;;;9.45;8.00;;;;;;;;;;4969247;28;20046;-69
2022/10/28 13:40:30;;;;;;;11.32;8.10;;;;;;;;;;4969698;28;20043;-69
2022/10/28 13:42:57;;;;;;;10.18;7.65;;;;;;;;;;4967976;28;20092;-69
2022/10/28 13:45:52;;;;;;;10.95;8.63;;;;;;;;;;4968940;28;20035;-69
2022/10/28 13:48:43;;;;;;;9.52;7.80;;;;;;;;;;4969360;28;20101;-69
2022/10/28 13:51:09;;;;;;;8.80;7.80;;;;;;;;;;4966236;28;20540;-69
2022/10/28 13:53:44;;;;;;;8.68;7.63;;;;;;;;;;4968820;28;20342;-68
2022/10/28 13:56:29;;;;;;;16.98;8.05;;;;;;;;;;4969360;28;20173;-68
2022/10/28 13:59:00;;;;;;;15.80;8.88;;;;;;;;;;4967527;28;20390;-68
2022/10/28 14:01:50;;;;;;;9.98;8.90;;;;;;;;;;4968223;28;20065;-68
2022/10/28 14:04:24;;;;;;;10.60;8.73;;;;;;;;;;4969663;28;20062;-68
2022/10/28 14:06:59;;;;;;;13.10;9.02;;;;;;;;;;4965977;28;20088;-68
2022/10/28 14:09:29;;;;;;;12.77;9.80;;;;;;;;;;4969643;28;20120;-68
2022/10/28 14:12:16;;;;;;;23.00;15.18;;;;;;;;;;4968954;28;20468;-68
2022/10/28 14:15:14;;;;;;;31.90;22.23;;;;;;;;;;4969399;28;20042;-68
2022/10/28 14:17:48;;;;;;;11.63;10.03;;;;;;;;;;4949553;28;20137;-68
2022/10/28 14:20:25;;;;;;;12.82;10.25;;;;;;;;;;4934841;29;20399;-68
2022/10/28 14:22:53;;;;;;;13.98;11.35;;;;;;;;;;4949545;28;20511;-68
2022/10/28 14:25:58;;;;;;;11.43;10.20;;;;;;;;;;4951673;28;20114;-68
2022/10/28 14:28:30;;;;;;;8.35;7.75;;;;;;;;;;4901963;29;20056;-69
2022/10/28 14:31:07;;;;;;;13.68;7.78;;;;;;;;;;4908518;29;20618;-69
2022/10/28 14:34:08;;;;;;;8.95;8.13;;;;;;;;;;4909674;29;20055;-69
2022/10/28 14:36:48;;;;;;;13.25;9.95;;;;;;;;;;4888946;29;20694;-69
2022/10/28 14:39:36;;;;;;;15.98;8.82;;;;;;;;;;4903632;29;20052;-69
2022/10/28 14:42:40;;;;;;;12.05;8.82;;;;;;;;;;4906435;29;20138;-69
2022/10/28 14:45:18;;;;;;;10.48;8.48;;;;;;;;;;4875226;29;20079;-69
2022/10/28 14:48:01;;;;;;;16.83;12.38;;;;;;;;;;4903696;29;20707;-68
2022/10/28 14:50:39;;;;;;;12.10;9.57;;;;;;;;;;4906947;29;20047;-68
2022/10/28 14:53:12;;;;;;;13.05;8.35;;;;;;;;;;4906838;29;20774;-68
2022/10/28 14:55:39;;;;;;;9.00;8.18;;;;;;;;;;4945544;28;20118;-68
2022/10/28 14:58:23;;;;;;;10.15;7.53;;;;;;;;;;4945788;28;20039;-69
2022/10/28 15:01:16;;;;;;;11.50;8.10;;;;;;;;;;4963787;28;20113;-69